sensor_id;sensor_type;location;lat;lon;timestamp;pressure;altitude;pressure_sealevel;temperature;humidity
29121;BME280;16191;49.548;8.658;2022-07-23T00:00:09;100245.00;;;24.54;77.38
29121;BME280;16191;49.548;8.658;2022-07-23T00:02:35;100248.59;;;24.45;78.21
29121;BME280;16191;49.548;8.658;2022-07-23T00:05:03;100240.59;;;24.45;78.18
29121;BME280;16191;49.548;8.658;2022-07-23T00:07:29;100239.13;;;24.51;77.93
29121;BME280;16191;49.548;8.658;2022-07-23T00:09:56;100246.91;;;24.44;77.76
29121;BME280;16191;49.548;8.658;2022-07-23T00:12:23;100249.59;;;24.44;78.11
29121;BME280;16191;49.548;8.658;2022-07-23T00:15:10;100256.22;;;24.40;78.90
29121;BME280;16191;49.548;8.658;2022-07-23T00:17:56;100255.06;;;24.43;78.63
29121;BME280;16191;49.548;8.658;2022-07-23T00:20:42;100260.47;;;24.33;79.08
29121;BME280;16191;49.548;8.658;2022-07-23T00:23:29;100266.63;;;24.34;79.25
29121;BME280;16191;49.548;8.658;2022-07-23T00:26:17;100277.38;;;24.24;79.89
29121;BME280;16191;49.548;8.658;2022-07-23T00:29:03;100270.81;;;24.09;77.48
29121;BME280;16191;49.548;8.658;2022-07-23T00:31:30;100266.91;;;23.76;77.79
29121;BME280;16191;49.548;8.658;2022-07-23T00:33:56;100270.63;;;23.55;77.46
29121;BME280;16191;49.548;8.658;2022-07-23T00:36:23;100263.19;;;23.59;76.62
29121;BME280;16191;49.548;8.658;2022-07-23T00:38:50;100252.91;;;23.64;76.43
29121;BME280;16191;49.548;8.658;2022-07-23T00:41:16;100257.50;;;23.25;78.40
29121;BME280;16191;49.548;8.658;2022-07-23T00:43:43;100258.56;;;23.51;76.66
29121;BME280;16191;49.548;8.658;2022-07-23T00:46:10;100269.22;;;23.51;76.94
29121;BME280;16191;49.548;8.658;2022-07-23T00:48:36;100278.25;;;23.02;79.98
29121;BME280;16191;49.548;8.658;2022-07-23T00:51:03;100276.44;;;23.12;80.14
29121;BME280;16191;49.548;8.658;2022-07-23T00:53:30;100267.44;;;23.33;79.04
29121;BME280;16191;49.548;8.658;2022-07-23T00:55:58;100270.19;;;23.41;78.31
29121;BME280;16191;49.548;8.658;2022-07-23T00:58:25;100250.59;;;23.42;78.16
29121;BME280;16191;49.548;8.658;2022-07-23T01:00:51;100261.13;;;23.34;78.44
29121;BME280;16191;49.548;8.658;2022-07-23T01:03:18;100271.38;;;23.29;78.77
29121;BME280;16191;49.548;8.658;2022-07-23T01:05:45;100276.84;;;23.17;79.35
29121;BME280;16191;49.548;8.658;2022-07-23T01:08:12;100287.19;;;23.30;78.88
29121;BME280;16191;49.548;8.658;2022-07-23T01:10:39;100284.69;;;23.29;78.23
29121;BME280;16191;49.548;8.658;2022-07-23T01:13:08;100279.50;;;23.37;78.15
29121;BME280;16191;49.548;8.658;2022-07-23T01:15:37;100286.06;;;23.33;78.17
29121;BME280;16191;49.548;8.658;2022-07-23T01:18:05;100289.72;;;23.32;78.39
29121;BME280;16191;49.548;8.658;2022-07-23T01:20:34;100292.81;;;23.27;78.25
29121;BME280;16191;49.548;8.658;2022-07-23T01:23:00;100302.19;;;23.31;78.53
29121;BME280;16191;49.548;8.658;2022-07-23T01:25:27;100305.44;;;23.15;79.42
29121;BME280;16191;49.548;8.658;2022-07-23T01:27:57;100292.97;;;23.16;79.04
29121;BME280;16191;49.548;8.658;2022-07-23T01:30:24;100285.41;;;23.11;79.62
29121;BME280;16191;49.548;8.658;2022-07-23T01:32:51;100286.94;;;23.04;79.94
29121;BME280;16191;49.548;8.658;2022-07-23T01:35:18;100293.81;;;22.97;80.54
29121;BME280;16191;49.548;8.658;2022-07-23T01:37:46;100284.84;;;22.98;80.93
29121;BME280;16191;49.548;8.658;2022-07-23T01:40:12;100276.41;;;22.54;84.04
29121;BME280;16191;49.548;8.658;2022-07-23T01:42:39;100273.50;;;22.67;83.86
29121;BME280;16191;49.548;8.658;2022-07-23T01:45:09;100266.09;;;22.80;83.36
29121;BME280;16191;49.548;8.658;2022-07-23T01:47:38;100278.66;;;22.69;83.87
29121;BME280;16191;49.548;8.658;2022-07-23T01:50:06;100276.56;;;22.63;84.90
29121;BME280;16191;49.548;8.658;2022-07-23T01:53:11;100274.03;;;22.61;84.47
29121;BME280;16191;49.548;8.658;2022-07-23T01:55:39;100269.28;;;22.65;85.54
29121;BME280;16191;49.548;8.658;2022-07-23T01:58:06;100267.88;;;22.61;85.26
29121;BME280;16191;49.548;8.658;2022-07-23T02:00:33;100267.75;;;22.62;85.09
29121;BME280;16191;49.548;8.658;2022-07-23T02:02:59;100267.00;;;22.41;86.94
29121;BME280;16191;49.548;8.658;2022-07-23T02:05:27;100288.28;;;22.41;87.18
29121;BME280;16191;49.548;8.658;2022-07-23T02:07:55;100283.81;;;22.41;87.03
29121;BME280;16191;49.548;8.658;2022-07-23T02:10:22;100269.28;;;22.45;87.33
29121;BME280;16191;49.548;8.658;2022-07-23T02:12:48;100270.25;;;22.54;87.18
29121;BME280;16191;49.548;8.658;2022-07-23T02:15:15;100276.28;;;22.46;87.07
29121;BME280;16191;49.548;8.658;2022-07-23T02:17:42;100277.22;;;22.36;88.58
29121;BME280;16191;49.548;8.658;2022-07-23T02:20:10;100279.03;;;22.35;88.64
29121;BME280;16191;49.548;8.658;2022-07-23T02:22:37;100265.19;;;22.41;88.09
29121;BME280;16191;49.548;8.658;2022-07-23T02:25:04;100277.78;;;22.39;88.40
29121;BME280;16191;49.548;8.658;2022-07-23T02:27:32;100290.91;;;22.31;88.85
29121;BME280;16191;49.548;8.658;2022-07-23T02:29:59;100281.56;;;22.37;89.13
29121;BME280;16191;49.548;8.658;2022-07-23T02:32:25;100268.41;;;22.35;89.23
29121;BME280;16191;49.548;8.658;2022-07-23T02:34:52;100273.28;;;22.30;89.31
29121;BME280;16191;49.548;8.658;2022-07-23T02:37:20;100280.09;;;22.13;91.18
29121;BME280;16191;49.548;8.658;2022-07-23T02:39:47;100286.38;;;22.03;92.29
29121;BME280;16191;49.548;8.658;2022-07-23T02:42:17;100276.47;;;22.05;91.85
29121;BME280;16191;49.548;8.658;2022-07-23T02:44:44;100288.34;;;22.10;91.72
29121;BME280;16191;49.548;8.658;2022-07-23T02:47:10;100301.22;;;22.05;92.69
29121;BME280;16191;49.548;8.658;2022-07-23T02:49:37;100277.69;;;22.01;93.64
29121;BME280;16191;49.548;8.658;2022-07-23T02:52:05;100278.53;;;22.01;93.24
29121;BME280;16191;49.548;8.658;2022-07-23T02:54:32;100278.53;;;22.01;93.24
29121;BME280;16191;49.548;8.658;2022-07-23T02:56:58;100257.03;;;22.04;93.00
29121;BME280;16191;49.548;8.658;2022-07-23T02:59:25;100272.13;;;22.04;93.80
29121;BME280;16191;49.548;8.658;2022-07-23T03:01:52;100279.53;;;22.10;93.45
29121;BME280;16191;49.548;8.658;2022-07-23T03:04:18;100289.19;;;22.11;92.80
29121;BME280;16191;49.548;8.658;2022-07-23T03:06:45;100292.13;;;22.08;93.15
29121;BME280;16191;49.548;8.658;2022-07-23T03:09:11;100290.00;;;22.02;93.46
29121;BME280;16191;49.548;8.658;2022-07-23T03:11:38;100298.44;;;22.07;93.02
29121;BME280;16191;49.548;8.658;2022-07-23T03:14:05;100305.09;;;22.01;93.53
29121;BME280;16191;49.548;8.658;2022-07-23T03:16:34;100327.06;;;22.03;94.12
29121;BME280;16191;49.548;8.658;2022-07-23T03:19:01;100340.53;;;21.90;94.66
29121;BME280;16191;49.548;8.658;2022-07-23T03:21:31;100349.38;;;21.70;95.75
29121;BME280;16191;49.548;8.658;2022-07-23T03:23:58;100351.03;;;21.62;95.95
29121;BME280;16191;49.548;8.658;2022-07-23T03:26:25;100346.97;;;21.67;95.98
29121;BME280;16191;49.548;8.658;2022-07-23T03:28:51;100348.59;;;21.79;95.27
29121;BME280;16191;49.548;8.658;2022-07-23T03:31:18;100341.88;;;21.75;95.48
29121;BME280;16191;49.548;8.658;2022-07-23T03:33:46;100344.66;;;21.74;95.51
29121;BME280;16191;49.548;8.658;2022-07-23T03:36:13;100347.69;;;21.69;96.06
29121;BME280;16191;49.548;8.658;2022-07-23T03:38:43;100354.69;;;21.49;97.40
29121;BME280;16191;49.548;8.658;2022-07-23T03:41:10;100356.59;;;21.59;96.57
29121;BME280;16191;49.548;8.658;2022-07-23T03:43:36;100344.75;;;21.63;96.33
29121;BME280;16191;49.548;8.658;2022-07-23T03:46:03;100355.38;;;21.63;96.51
29121;BME280;16191;49.548;8.658;2022-07-23T03:48:30;100356.47;;;21.60;96.36
29121;BME280;16191;49.548;8.658;2022-07-23T03:50:58;100346.47;;;21.52;97.10
29121;BME280;16191;49.548;8.658;2022-07-23T03:53:24;100360.59;;;21.53;96.75
29121;BME280;16191;49.548;8.658;2022-07-23T03:55:51;100355.81;;;21.47;97.36
29121;BME280;16191;49.548;8.658;2022-07-23T03:58:17;100363.75;;;21.47;97.22
29121;BME280;16191;49.548;8.658;2022-07-23T04:00:44;100351.78;;;21.52;97.28
29121;BME280;16191;49.548;8.658;2022-07-23T04:03:10;100333.78;;;21.56;96.81
29121;BME280;16191;49.548;8.658;2022-07-23T04:05:37;100324.66;;;21.49;98.10
29121;BME280;16191;49.548;8.658;2022-07-23T04:08:06;100314.28;;;21.46;98.51
29121;BME280;16191;49.548;8.658;2022-07-23T04:10:34;100339.44;;;21.42;99.54
29121;BME280;16191;49.548;8.658;2022-07-23T04:13:02;100340.72;;;21.27;100.00
29121;BME280;16191;49.548;8.658;2022-07-23T04:15:29;100355.03;;;21.35;100.00
29121;BME280;16191;49.548;8.658;2022-07-23T04:17:56;100342.94;;;21.42;100.00
29121;BME280;16191;49.548;8.658;2022-07-23T04:20:29;100356.97;;;21.33;99.77
29121;BME280;16191;49.548;8.658;2022-07-23T04:22:59;100358.66;;;21.34;100.00
29121;BME280;16191;49.548;8.658;2022-07-23T04:25:27;100353.47;;;21.33;99.78
29121;BME280;16191;49.548;8.658;2022-07-23T04:27:53;100385.19;;;21.34;99.92
29121;BME280;16191;49.548;8.658;2022-07-23T04:30:20;100395.59;;;21.26;100.00
29121;BME280;16191;49.548;8.658;2022-07-23T04:32:46;100419.25;;;21.18;100.00
29121;BME280;16191;49.548;8.658;2022-07-23T04:35:20;100437.09;;;21.27;100.00
29121;BME280;16191;49.548;8.658;2022-07-23T04:37:49;100435.41;;;21.26;100.00
29121;BME280;16191;49.548;8.658;2022-07-23T04:40:17;100441.56;;;21.27;100.00
29121;BME280;16191;49.548;8.658;2022-07-23T04:42:44;100438.94;;;21.15;100.00
29121;BME280;16191;49.548;8.658;2022-07-23T04:45:10;100439.88;;;21.26;100.00
29121;BME280;16191;49.548;8.658;2022-07-23T04:47:40;100441.94;;;21.22;100.00
29121;BME280;16191;49.548;8.658;2022-07-23T04:50:07;100441.91;;;21.33;100.00
29121;BME280;16191;49.548;8.658;2022-07-23T04:52:35;100461.94;;;21.26;100.00
29121;BME280;16191;49.548;8.658;2022-07-23T04:55:03;100457.84;;;21.22;100.00
29121;BME280;16191;49.548;8.658;2022-07-23T04:57:30;100452.56;;;21.11;100.00
29121;BME280;16191;49.548;8.658;2022-07-23T04:59:56;100434.72;;;21.02;100.00
29121;BME280;16191;49.548;8.658;2022-07-23T05:02:23;100450.75;;;21.11;100.00
29121;BME280;16191;49.548;8.658;2022-07-23T05:04:50;100445.69;;;21.08;100.00
29121;BME280;16191;49.548;8.658;2022-07-23T05:07:16;100455.00;;;21.03;100.00
29121;BME280;16191;49.548;8.658;2022-07-23T05:09:43;100464.50;;;21.05;100.00
29121;BME280;16191;49.548;8.658;2022-07-23T05:12:10;100463.78;;;21.03;100.00
29121;BME280;16191;49.548;8.658;2022-07-23T05:14:36;100476.72;;;20.97;100.00
29121;BME280;16191;49.548;8.658;2022-07-23T05:17:03;100479.50;;;20.95;100.00
29121;BME280;16191;49.548;8.658;2022-07-23T05:19:30;100473.59;;;20.92;100.00
29121;BME280;16191;49.548;8.658;2022-07-23T05:21:57;100479.63;;;20.94;100.00
29121;BME280;16191;49.548;8.658;2022-07-23T05:24:24;100473.22;;;20.85;100.00
29121;BME280;16191;49.548;8.658;2022-07-23T05:26:51;100471.44;;;20.85;100.00
29121;BME280;16191;49.548;8.658;2022-07-23T05:29:19;100462.38;;;20.88;100.00
29121;BME280;16191;49.548;8.658;2022-07-23T05:31:45;100472.25;;;20.86;100.00
29121;BME280;16191;49.548;8.658;2022-07-23T05:34:12;100485.16;;;20.91;100.00
29121;BME280;16191;49.548;8.658;2022-07-23T05:36:43;100492.28;;;20.79;100.00
29121;BME280;16191;49.548;8.658;2022-07-23T05:39:10;100472.38;;;20.84;100.00
29121;BME280;16191;49.548;8.658;2022-07-23T05:41:37;100474.22;;;20.73;100.00
29121;BME280;16191;49.548;8.658;2022-07-23T05:44:04;100458.19;;;20.74;100.00
29121;BME280;16191;49.548;8.658;2022-07-23T05:46:31;100458.31;;;20.73;100.00
29121;BME280;16191;49.548;8.658;2022-07-23T05:49:03;100440.00;;;20.70;100.00
29121;BME280;16191;49.548;8.658;2022-07-23T05:51:56;100434.94;;;20.67;100.00
29121;BME280;16191;49.548;8.658;2022-07-23T05:54:40;100429.78;;;20.54;100.00
29121;BME280;16191;49.548;8.658;2022-07-23T05:57:06;100442.91;;;20.56;100.00
29121;BME280;16191;49.548;8.658;2022-07-23T05:59:33;100433.25;;;20.66;100.00
29121;BME280;16191;49.548;8.658;2022-07-23T06:01:59;100407.59;;;20.55;100.00
29121;BME280;16191;49.548;8.658;2022-07-23T06:04:26;100390.09;;;20.64;100.00
29121;BME280;16191;49.548;8.658;2022-07-23T06:07:11;100436.03;;;20.42;100.00
29121;BME280;16191;49.548;8.658;2022-07-23T06:09:38;100447.72;;;20.50;100.00
29121;BME280;16191;49.548;8.658;2022-07-23T06:12:05;100446.00;;;20.61;100.00
29121;BME280;16191;49.548;8.658;2022-07-23T06:14:31;100437.81;;;20.64;100.00
29121;BME280;16191;49.548;8.658;2022-07-23T06:16:58;100446.25;;;20.69;100.00
29121;BME280;16191;49.548;8.658;2022-07-23T06:19:26;100439.50;;;20.65;100.00
29121;BME280;16191;49.548;8.658;2022-07-23T06:21:52;100446.97;;;20.71;100.00
29121;BME280;16191;49.548;8.658;2022-07-23T06:24:19;100454.91;;;20.82;100.00
29121;BME280;16191;49.548;8.658;2022-07-23T06:26:47;100473.00;;;20.88;100.00
29121;BME280;16191;49.548;8.658;2022-07-23T06:29:14;100470.81;;;20.82;100.00
29121;BME280;16191;49.548;8.658;2022-07-23T06:31:41;100482.88;;;20.86;100.00
29121;BME280;16191;49.548;8.658;2022-07-23T06:34:08;100477.44;;;20.87;100.00
29121;BME280;16191;49.548;8.658;2022-07-23T06:36:35;100471.91;;;20.91;100.00
29121;BME280;16191;49.548;8.658;2022-07-23T06:39:01;100486.25;;;20.88;100.00
29121;BME280;16191;49.548;8.658;2022-07-23T06:41:29;100493.09;;;21.02;100.00
29121;BME280;16191;49.548;8.658;2022-07-23T06:43:56;100503.59;;;21.03;100.00
29121;BME280;16191;49.548;8.658;2022-07-23T06:46:22;100506.97;;;21.05;100.00
29121;BME280;16191;49.548;8.658;2022-07-23T06:48:50;100523.97;;;21.03;100.00
29121;BME280;16191;49.548;8.658;2022-07-23T06:51:18;100511.78;;;21.00;100.00
29121;BME280;16191;49.548;8.658;2022-07-23T06:53:45;100519.38;;;21.05;100.00
29121;BME280;16191;49.548;8.658;2022-07-23T06:56:12;100517.38;;;20.97;100.00
29121;BME280;16191;49.548;8.658;2022-07-23T06:58:42;100510.22;;;21.09;100.00
29121;BME280;16191;49.548;8.658;2022-07-23T07:01:08;100502.38;;;21.07;100.00
29121;BME280;16191;49.548;8.658;2022-07-23T07:03:35;100503.09;;;21.09;100.00
29121;BME280;16191;49.548;8.658;2022-07-23T07:06:02;100506.47;;;21.11;100.00
29121;BME280;16191;49.548;8.658;2022-07-23T07:08:29;100508.28;;;21.11;100.00
29121;BME280;16191;49.548;8.658;2022-07-23T07:10:55;100507.31;;;21.12;100.00
29121;BME280;16191;49.548;8.658;2022-07-23T07:13:22;100510.59;;;20.93;100.00
29121;BME280;16191;49.548;8.658;2022-07-23T07:15:49;100495.06;;;21.00;100.00
29121;BME280;16191;49.548;8.658;2022-07-23T07:18:15;100490.06;;;21.06;100.00
29121;BME280;16191;49.548;8.658;2022-07-23T07:20:42;100513.03;;;20.96;100.00
29121;BME280;16191;49.548;8.658;2022-07-23T07:23:08;100512.78;;;20.99;100.00
29121;BME280;16191;49.548;8.658;2022-07-23T07:25:35;100512.16;;;21.07;100.00
29121;BME280;16191;49.548;8.658;2022-07-23T07:28:02;100519.16;;;21.08;100.00
29121;BME280;16191;49.548;8.658;2022-07-23T07:30:29;100514.31;;;21.13;100.00
29121;BME280;16191;49.548;8.658;2022-07-23T07:33:00;100518.09;;;21.22;100.00
29121;BME280;16191;49.548;8.658;2022-07-23T07:35:26;100520.94;;;21.18;100.00
29121;BME280;16191;49.548;8.658;2022-07-23T07:37:53;100527.22;;;21.29;100.00
29121;BME280;16191;49.548;8.658;2022-07-23T07:40:20;100527.69;;;21.23;100.00
29121;BME280;16191;49.548;8.658;2022-07-23T07:42:52;100533.25;;;21.19;100.00
29121;BME280;16191;49.548;8.658;2022-07-23T07:45:20;100542.28;;;21.06;100.00
29121;BME280;16191;49.548;8.658;2022-07-23T07:47:47;100538.31;;;21.23;100.00
29121;BME280;16191;49.548;8.658;2022-07-23T07:50:14;100542.06;;;21.31;100.00
29121;BME280;16191;49.548;8.658;2022-07-23T07:52:41;100548.38;;;21.62;100.00
29121;BME280;16191;49.548;8.658;2022-07-23T07:55:09;100547.81;;;21.79;100.00
29121;BME280;16191;49.548;8.658;2022-07-23T07:57:36;100563.78;;;21.68;100.00
29121;BME280;16191;49.548;8.658;2022-07-23T08:00:05;100564.09;;;21.54;100.00
29121;BME280;16191;49.548;8.658;2022-07-23T08:02:43;100564.97;;;21.86;100.00
29121;BME280;16191;49.548;8.658;2022-07-23T08:05:11;100563.88;;;22.10;100.00
29121;BME280;16191;49.548;8.658;2022-07-23T08:07:38;100567.47;;;22.20;100.00
29121;BME280;16191;49.548;8.658;2022-07-23T08:10:07;100572.88;;;21.98;100.00
29121;BME280;16191;49.548;8.658;2022-07-23T08:12:45;100570.25;;;22.18;100.00
29121;BME280;16191;49.548;8.658;2022-07-23T08:15:13;100570.34;;;22.28;100.00
29121;BME280;16191;49.548;8.658;2022-07-23T08:17:41;100564.47;;;22.34;100.00
29121;BME280;16191;49.548;8.658;2022-07-23T08:20:10;100572.41;;;22.25;100.00
29121;BME280;16191;49.548;8.658;2022-07-23T08:22:56;100567.22;;;22.23;100.00
29121;BME280;16191;49.548;8.658;2022-07-23T08:25:31;100563.22;;;22.29;100.00
29121;BME280;16191;49.548;8.658;2022-07-23T08:28:00;100566.00;;;22.27;100.00
29121;BME280;16191;49.548;8.658;2022-07-23T08:30:27;100570.75;;;22.12;100.00
29121;BME280;16191;49.548;8.658;2022-07-23T08:35:34;100579.44;;;22.56;100.00
29121;BME280;16191;49.548;8.658;2022-07-23T08:38:03;100585.94;;;22.84;100.00
29121;BME280;16191;49.548;8.658;2022-07-23T08:40:32;100591.25;;;22.84;100.00
29121;BME280;16191;49.548;8.658;2022-07-23T08:42:59;100587.63;;;22.85;100.00
29121;BME280;16191;49.548;8.658;2022-07-23T08:45:27;100593.41;;;23.30;98.96
29121;BME280;16191;49.548;8.658;2022-07-23T08:47:57;100593.66;;;23.27;97.30
29121;BME280;16191;49.548;8.658;2022-07-23T08:50:30;100590.03;;;23.28;95.20
29121;BME280;16191;49.548;8.658;2022-07-23T08:52:59;100591.63;;;23.50;94.84
29121;BME280;16191;49.548;8.658;2022-07-23T08:55:28;100584.84;;;23.76;93.83
29121;BME280;16191;49.548;8.658;2022-07-23T08:57:57;100580.06;;;23.89;93.81
29121;BME280;16191;49.548;8.658;2022-07-23T09:00:24;100576.69;;;24.07;93.17
29121;BME280;16191;49.548;8.658;2022-07-23T09:02:51;100582.72;;;24.28;89.17
29121;BME280;16191;49.548;8.658;2022-07-23T09:05:19;100582.59;;;24.39;87.95
29121;BME280;16191;49.548;8.658;2022-07-23T09:08:09;100580.06;;;24.38;89.56
29121;BME280;16191;49.548;8.658;2022-07-23T09:11:00;100582.69;;;24.94;87.78
29121;BME280;16191;49.548;8.658;2022-07-23T09:18:54;100578.25;;;24.85;84.81
29121;BME280;16191;49.548;8.658;2022-07-23T09:21:29;100571.47;;;24.90;82.54
29121;BME280;16191;49.548;8.658;2022-07-23T09:29:18;100564.19;;;25.47;78.96
29121;BME280;16191;49.548;8.658;2022-07-23T09:31:56;100567.94;;;25.54;78.03
29121;BME280;16191;49.548;8.658;2022-07-23T09:34:27;100570.72;;;25.80;75.82
29121;BME280;16191;49.548;8.658;2022-07-23T09:36:56;100568.44;;;25.68;76.69
29121;BME280;16191;49.548;8.658;2022-07-23T09:39:32;100563.88;;;25.95;73.05
29121;BME280;16191;49.548;8.658;2022-07-23T09:42:22;100565.66;;;26.31;71.46
29121;BME280;16191;49.548;8.658;2022-07-23T09:44:51;100568.66;;;26.10;71.01
29121;BME280;16191;49.548;8.658;2022-07-23T09:47:18;100567.13;;;26.51;69.60
29121;BME280;16191;49.548;8.658;2022-07-23T09:50:08;100576.78;;;26.70;66.11
29121;BME280;16191;49.548;8.658;2022-07-23T09:52:43;100578.75;;;27.19;67.14
29121;BME280;16191;49.548;8.658;2022-07-23T09:55:10;100576.84;;;27.04;63.95
29121;BME280;16191;49.548;8.658;2022-07-23T09:57:37;100571.50;;;27.04;62.71
29121;BME280;16191;49.548;8.658;2022-07-23T10:00:08;100574.97;;;26.96;63.47
29121;BME280;16191;49.548;8.658;2022-07-23T10:02:36;100570.19;;;27.16;61.43
29121;BME280;16191;49.548;8.658;2022-07-23T10:05:22;100575.63;;;26.72;62.09
29121;BME280;16191;49.548;8.658;2022-07-23T10:08:11;100582.19;;;27.04;61.62
29121;BME280;16191;49.548;8.658;2022-07-23T10:10:57;100576.72;;;26.87;62.87
29121;BME280;16191;49.548;8.658;2022-07-23T10:13:45;100581.03;;;27.48;60.98
29121;BME280;16191;49.548;8.658;2022-07-23T10:16:51;100574.25;;;27.86;60.77
29121;BME280;16191;49.548;8.658;2022-07-23T10:19:18;100569.75;;;28.11;55.70
29121;BME280;16191;49.548;8.658;2022-07-23T10:21:48;100567.38;;;28.00;58.76
29121;BME280;16191;49.548;8.658;2022-07-23T10:24:23;100562.88;;;28.25;57.90
29121;BME280;16191;49.548;8.658;2022-07-23T10:27:19;100567.53;;;27.24;58.78
29121;BME280;16191;49.548;8.658;2022-07-23T10:29:52;100560.75;;;27.54;58.78
29121;BME280;16191;49.548;8.658;2022-07-23T10:35:39;100560.50;;;28.38;55.06
29121;BME280;16191;49.548;8.658;2022-07-23T10:38:20;100556.75;;;28.63;54.21
29121;BME280;16191;49.548;8.658;2022-07-23T10:40:58;100559.25;;;28.73;53.45
29121;BME280;16191;49.548;8.658;2022-07-23T10:43:26;100556.19;;;29.01;52.30
29121;BME280;16191;49.548;8.658;2022-07-23T10:45:53;100552.78;;;29.07;53.04
29121;BME280;16191;49.548;8.658;2022-07-23T10:48:21;100557.56;;;28.88;51.56
29121;BME280;16191;49.548;8.658;2022-07-23T10:51:09;100552.06;;;29.52;52.20
29121;BME280;16191;49.548;8.658;2022-07-23T10:59:16;100556.75;;;29.81;48.73
29121;BME280;16191;49.548;8.658;2022-07-23T11:01:42;100554.56;;;30.07;47.54
29121;BME280;16191;49.548;8.658;2022-07-23T11:04:09;100550.84;;;29.23;49.95
29121;BME280;16191;49.548;8.658;2022-07-23T11:09:38;100551.78;;;29.70;50.47
29121;BME280;16191;49.548;8.658;2022-07-23T11:17:27;100557.81;;;29.94;48.53
29121;BME280;16191;49.548;8.658;2022-07-23T11:22:37;100551.38;;;30.04;47.36
29121;BME280;16191;49.548;8.658;2022-07-23T11:25:05;100549.81;;;30.47;46.79
29121;BME280;16191;49.548;8.658;2022-07-23T11:27:38;100548.75;;;30.71;46.79
29121;BME280;16191;49.548;8.658;2022-07-23T11:30:08;100549.75;;;29.94;47.23
29121;BME280;16191;49.548;8.658;2022-07-23T11:32:37;100544.00;;;29.97;49.51
29121;BME280;16191;49.548;8.658;2022-07-23T11:35:26;100548.91;;;29.94;47.27
29121;BME280;16191;49.548;8.658;2022-07-23T11:38:03;100548.97;;;30.46;46.68
29121;BME280;16191;49.548;8.658;2022-07-23T11:40:30;100555.75;;;30.05;46.67
29121;BME280;16191;49.548;8.658;2022-07-23T11:43:04;100549.69;;;30.55;46.21
29121;BME280;16191;49.548;8.658;2022-07-23T11:45:37;100544.72;;;30.96;44.61
29121;BME280;16191;49.548;8.658;2022-07-23T11:48:05;100544.31;;;31.28;44.53
29121;BME280;16191;49.548;8.658;2022-07-23T11:50:33;100541.91;;;31.33;43.23
29121;BME280;16191;49.548;8.658;2022-07-23T11:53:00;100539.44;;;31.17;43.69
29121;BME280;16191;49.548;8.658;2022-07-23T11:55:27;100538.97;;;31.14;42.68
29121;BME280;16191;49.548;8.658;2022-07-23T11:57:55;100537.53;;;30.44;44.48
29121;BME280;16191;49.548;8.658;2022-07-23T12:00:28;100527.16;;;31.15;44.31
29121;BME280;16191;49.548;8.658;2022-07-23T12:02:57;100532.13;;;31.68;41.96
29121;BME280;16191;49.548;8.658;2022-07-23T12:05:30;100525.59;;;30.76;42.55
29121;BME280;16191;49.548;8.658;2022-07-23T12:07:58;100515.38;;;30.86;42.69
29121;BME280;16191;49.548;8.658;2022-07-23T12:10:32;100521.94;;;30.98;42.49
29121;BME280;16191;49.548;8.658;2022-07-23T12:13:03;100529.41;;;30.82;42.94
29121;BME280;16191;49.548;8.658;2022-07-23T12:15:32;100523.28;;;30.58;42.86
29121;BME280;16191;49.548;8.658;2022-07-23T12:18:00;100519.47;;;30.67;42.67
29121;BME280;16191;49.548;8.658;2022-07-23T12:20:37;100523.56;;;30.63;42.60
29121;BME280;16191;49.548;8.658;2022-07-23T12:23:06;100519.75;;;31.38;41.32
29121;BME280;16191;49.548;8.658;2022-07-23T12:25:36;100512.03;;;30.84;41.63
29121;BME280;16191;49.548;8.658;2022-07-23T12:28:07;100528.38;;;30.83;42.94
29121;BME280;16191;49.548;8.658;2022-07-23T12:33:10;100529.13;;;30.62;43.66
29121;BME280;16191;49.548;8.658;2022-07-23T12:35:42;100520.06;;;30.40;43.57
29121;BME280;16191;49.548;8.658;2022-07-23T12:38:13;100510.38;;;30.68;42.99
29121;BME280;16191;49.548;8.658;2022-07-23T12:40:55;100516.00;;;30.44;42.90
29121;BME280;16191;49.548;8.658;2022-07-23T12:43:28;100522.16;;;30.67;42.75
29121;BME280;16191;49.548;8.658;2022-07-23T12:51:30;100525.31;;;30.86;43.23
29121;BME280;16191;49.548;8.658;2022-07-23T12:54:04;100521.03;;;30.77;42.47
29121;BME280;16191;49.548;8.658;2022-07-23T12:56:34;100522.41;;;30.43;43.38
29121;BME280;16191;49.548;8.658;2022-07-23T13:01:35;100531.25;;;30.81;42.87
29121;BME280;16191;49.548;8.658;2022-07-23T13:04:06;100525.47;;;31.50;42.63
29121;BME280;16191;49.548;8.658;2022-07-23T13:06:44;100518.81;;;31.88;42.00
29121;BME280;16191;49.548;8.658;2022-07-23T13:09:13;100519.03;;;32.15;39.92
29121;BME280;16191;49.548;8.658;2022-07-23T13:11:42;100516.47;;;32.62;38.30
29121;BME280;16191;49.548;8.658;2022-07-23T13:14:10;100514.97;;;32.94;38.11
29121;BME280;16191;49.548;8.658;2022-07-23T13:16:38;100521.19;;;32.82;37.02
29121;BME280;16191;49.548;8.658;2022-07-23T13:19:06;100521.19;;;33.36;37.96
29121;BME280;16191;49.548;8.658;2022-07-23T13:21:38;100531.84;;;32.96;36.93
29121;BME280;16191;49.548;8.658;2022-07-23T13:24:05;100522.66;;;32.00;39.07
29121;BME280;16191;49.548;8.658;2022-07-23T13:26:34;100518.66;;;32.80;37.09
29121;BME280;16191;49.548;8.658;2022-07-23T13:29:01;100517.72;;;32.32;38.59
29121;BME280;16191;49.548;8.658;2022-07-23T13:31:28;100520.44;;;32.11;39.07
29121;BME280;16191;49.548;8.658;2022-07-23T13:33:54;100522.06;;;32.05;40.34
29121;BME280;16191;49.548;8.658;2022-07-23T13:36:21;100525.16;;;31.59;39.45
29121;BME280;16191;49.548;8.658;2022-07-23T13:38:47;100526.38;;;31.35;40.24
29121;BME280;16191;49.548;8.658;2022-07-23T13:41:19;100522.28;;;31.25;39.56
29121;BME280;16191;49.548;8.658;2022-07-23T13:43:45;100517.09;;;31.23;40.26